Time;durP1;ratioP1;P1;durP2;ratioP2;P2;SDS_P1;SDS_P2;PMS_P1;PMS_P2;Temp;Humidity;BMP_temperature;BMP_pressure;BME280_temperature;BME280_humidity;BME280_pressure;Samples;Min_cycle;Max_cycle;Signal;HPM_P1;HPM_P2
2022/02/22 00:01:15;;;;;;;30.83;8.77;;;28.80;62.80;;;;;;4966950;29;20015;-41
2022/02/22 00:03:42;;;;;;;25.65;8.48;;;28.80;62.60;;;;;;4966683;29;20147;-45
2022/02/22 00:06:08;;;;;;;26.75;8.52;;;28.80;62.50;;;;;;4967131;29;20027;-44
2022/02/22 00:08:35;;;;;;;29.88;9.18;;;28.80;62.10;;;;;;4966658;29;20035;-41
2022/02/22 00:11:02;;;;;;;33.50;9.23;;;28.80;62.30;;;;;;4966454;29;20061;-41
2022/02/22 00:13:28;;;;;;;33.15;8.93;;;28.80;62.40;;;;;;4966473;29;20031;-43
2022/02/22 00:15:56;;;;;;;27.73;8.32;;;28.80;62.50;;;;;;4966870;29;20042;-49
2022/02/22 00:18:23;;;;;;;23.35;8.80;;;28.80;62.40;;;;;;4966692;29;20058;-41
2022/02/22 00:20:50;;;;;;;21.77;8.85;;;28.80;62.40;;;;;;4966530;29;20196;-50
2022/02/22 00:23:16;;;;;;;24.77;8.98;;;28.80;62.40;;;;;;4966769;29;20049;-41
2022/02/22 00:25:43;;;;;;;27.20;9.15;;;28.70;62.40;;;;;;4966807;29;20074;-40
2022/02/22 00:28:10;;;;;;;29.83;9.63;;;28.70;62.40;;;;;;4966686;29;20041;-41
2022/02/22 00:30:36;;;;;;;34.95;9.02;;;28.70;62.60;;;;;;4966511;29;20023;-43
2022/02/22 00:33:03;;;;;;;30.38;9.23;;;28.70;62.70;;;;;;4966285;29;20027;-42
2022/02/22 00:35:29;;;;;;;34.33;9.32;;;28.70;62.80;;;;;;4966613;29;20046;-42
2022/02/22 00:37:56;;;;;;;22.65;8.90;;;28.70;63.00;;;;;;4965931;29;20026;-42
2022/02/22 00:40:23;;;;;;;25.25;8.98;;;28.70;63.00;;;;;;4966171;29;20019;-39
2022/02/22 00:42:49;;;;;;;23.63;8.85;;;28.70;63.20;;;;;;4965218;28;20031;-44
2022/02/22 00:45:16;;;;;;;23.98;8.73;;;28.70;63.20;;;;;;4965750;29;20034;-45
2022/02/22 00:47:43;;;;;;;19.17;8.57;;;28.70;63.40;;;;;;4965755;29;20031;-42
2022/02/22 00:50:09;;;;;;;29.10;8.48;;;28.70;63.40;;;;;;4966040;29;20027;-45
2022/02/22 00:52:36;;;;;;;35.20;9.15;;;28.60;63.50;;;;;;4965489;29;20103;-41
2022/02/22 00:55:03;;;;;;;27.75;8.65;;;28.60;63.60;;;;;;4965747;29;20030;-50
2022/02/22 00:57:31;;;;;;;30.48;8.32;;;28.70;63.70;;;;;;4965641;29;20327;-41
2022/02/22 00:59:57;;;;;;;24.95;8.20;;;28.60;63.80;;;;;;4965573;29;20049;-46
2022/02/22 01:02:25;;;;;;;20.02;8.18;;;28.60;63.80;;;;;;4965717;29;20071;-47
2022/02/22 01:04:52;;;;;;;21.88;8.50;;;28.60;63.90;;;;;;4965645;29;20031;-43
2022/02/22 01:07:20;;;;;;;23.90;8.02;;;28.60;64.00;;;;;;4965670;29;20307;-43
2022/02/22 01:09:47;;;;;;;23.40;8.10;;;28.60;63.90;;;;;;4965770;29;20074;-42
2022/02/22 01:12:16;;;;;;;16.88;8.43;;;28.60;64.00;;;;;;4965590;29;20043;-41
2022/02/22 01:14:44;;;;;;;21.63;8.10;;;28.60;64.00;;;;;;4965338;29;20023;-51
2022/02/22 01:17:10;;;;;;;19.75;8.27;;;28.60;64.00;;;;;;4965628;29;20067;-44
2022/02/22 01:19:37;;;;;;;15.50;8.27;;;28.60;63.80;;;;;;4965577;28;20038;-48
2022/02/22 01:22:06;;;;;;;14.60;7.53;;;28.60;63.90;;;;;;4965418;29;20031;-46
2022/02/22 01:24:33;;;;;;;16.85;8.40;;;28.60;63.90;;;;;;4965594;29;20038;-46
2022/02/22 01:26:59;;;;;;;14.02;7.68;;;28.60;64.50;;;;;;4965565;29;20031;-46
2022/02/22 01:29:27;;;;;;;15.02;7.65;;;28.60;64.00;;;;;;4965382;29;20029;-41
2022/02/22 01:31:54;;;;;;;12.98;7.65;;;28.60;63.90;;;;;;4965394;29;20295;-40
2022/02/22 01:34:20;;;;;;;15.27;8.02;;;28.50;63.80;;;;;;4965477;29;20020;-40
2022/02/22 01:36:47;;;;;;;19.42;8.00;;;28.60;63.80;;;;;;4965367;29;20094;-41
2022/02/22 01:39:14;;;;;;;14.40;8.07;;;28.50;63.60;;;;;;4965568;29;20042;-38
2022/02/22 01:41:45;;;;;;;15.02;7.97;;;28.50;63.60;;;;;;4965511;29;20023;-40
2022/02/22 01:44:13;;;;;;;17.77;8.10;;;28.50;63.40;;;;;;4965122;29;20027;-46
2022/02/22 01:46:40;;;;;;;13.60;7.95;;;28.50;63.40;;;;;;4965760;29;20035;-40
2022/02/22 01:49:07;;;;;;;17.85;8.50;;;28.50;63.10;;;;;;4965017;29;20224;-47
2022/02/22 01:51:34;;;;;;;15.80;8.38;;;28.50;63.10;;;;;;4965756;29;20311;-42
2022/02/22 01:54:00;;;;;;;13.77;7.53;;;28.50;63.00;;;;;;4932275;29;20315;-41
2022/02/22 01:56:27;;;;;;;14.00;7.80;;;28.50;63.00;;;;;;4968028;29;20027;-45
2022/02/22 01:58:54;;;;;;;9.52;7.40;;;28.40;62.80;;;;;;4968352;28;20031;-51
2022/02/22 02:01:24;;;;;;;16.98;8.10;;;28.40;62.80;;;;;;4968966;29;20015;-43
2022/02/22 02:03:53;;;;;;;14.85;8.38;;;28.40;62.60;;;;;;4951494;29;20035;-40
2022/02/22 02:06:20;;;;;;;17.98;8.02;;;28.40;62.60;;;;;;4968817;29;20071;-45
2022/02/22 02:08:47;;;;;;;16.40;7.97;;;28.40;62.40;;;;;;4968623;29;20023;-40
2022/02/22 02:11:13;;;;;;;15.02;7.80;;;28.40;62.50;;;;;;4968697;29;20065;-42
2022/02/22 02:13:40;;;;;;;14.10;7.47;;;28.40;62.40;;;;;;4951336;29;20030;-41
2022/02/22 02:16:07;;;;;;;11.27;7.75;;;28.40;62.30;;;;;;4968748;29;20042;-42
2022/02/22 02:18:34;;;;;;;13.32;8.05;;;28.40;62.20;;;;;;4968413;29;20024;-41
2022/02/22 02:21:01;;;;;;;17.83;7.65;;;28.40;62.10;;;;;;4967870;29;20366;-47
2022/02/22 02:23:28;;;;;;;14.50;7.63;;;28.40;62.10;;;;;;4968326;29;20062;-49
2022/02/22 02:25:56;;;;;;;15.48;8.15;;;28.40;62.10;;;;;;4968437;29;20026;-39
2022/02/22 02:28:22;;;;;;;14.05;8.13;;;28.40;62.00;;;;;;4967975;29;20250;-42
2022/02/22 02:30:49;;;;;;;15.85;7.78;;;28.40;61.90;;;;;;4968275;29;20082;-41
2022/02/22 02:33:16;;;;;;;12.43;7.68;;;28.40;61.80;;;;;;4968205;29;20346;-41
2022/02/22 02:35:43;;;;;;;15.68;8.20;;;28.40;61.80;;;;;;4968039;29;20035;-41
2022/02/22 02:38:09;;;;;;;19.33;8.85;;;28.30;61.70;;;;;;4968053;29;20211;-40
2022/02/22 02:40:37;;;;;;;15.40;7.72;;;28.40;61.80;;;;;;4967759;29;20027;-36
2022/02/22 02:43:04;;;;;;;17.00;7.78;;;28.40;61.80;;;;;;4967138;29;20031;-39
2022/02/22 02:45:30;;;;;;;12.55;8.27;;;28.30;61.70;;;;;;4967479;29;20019;-38
2022/02/22 02:47:57;;;;;;;14.10;8.18;;;28.30;61.60;;;;;;4967477;29;20077;-39
2022/02/22 02:50:23;;;;;;;14.25;8.23;;;28.30;61.40;;;;;;4967647;29;20022;-39
2022/02/22 02:52:50;;;;;;;15.05;8.07;;;28.30;61.40;;;;;;4967649;29;20043;-39
2022/02/22 02:55:17;;;;;;;10.80;7.75;;;28.30;61.20;;;;;;4967346;29;20022;-41
2022/02/22 02:57:43;;;;;;;10.70;7.38;;;28.30;61.30;;;;;;4967185;29;20103;-38
2022/02/22 03:00:11;;;;;;;11.15;7.93;;;28.30;61.10;;;;;;4967176;29;20042;-49
2022/02/22 03:02:38;;;;;;;8.88;7.82;;;28.30;61.00;;;;;;4967311;29;20023;-38
2022/02/22 03:05:06;;;;;;;15.02;8.23;;;28.30;60.80;;;;;;4949991;28;20033;-41
2022/02/22 03:07:33;;;;;;;10.55;7.95;;;28.20;61.00;;;;;;4966897;29;20087;-40
2022/02/22 03:10:00;;;;;;;12.57;7.60;;;28.20;60.80;;;;;;4967434;29;20063;-44
2022/02/22 03:12:27;;;;;;;13.68;8.32;;;28.20;60.90;;;;;;4967206;29;20039;-39
2022/02/22 03:14:54;;;;;;;10.35;8.40;;;28.30;61.00;;;;;;4966714;29;20019;-46
2022/02/22 03:17:20;;;;;;;16.52;8.75;;;28.20;60.60;;;;;;4967245;29;20035;-38
2022/02/22 03:19:47;;;;;;;16.45;8.88;;;28.20;60.70;;;;;;4966975;29;20019;-46
2022/02/22 03:22:13;;;;;;;17.17;8.27;;;28.20;60.70;;;;;;4967071;29;20034;-39
2022/02/22 03:24:40;;;;;;;12.43;8.32;;;28.20;60.70;;;;;;4966753;28;20031;-37
2022/02/22 03:27:07;;;;;;;20.35;17.73;;;28.20;60.70;;;;;;4966770;29;20031;-42
2022/02/22 03:29:33;;;;;;;17.20;12.38;;;28.20;60.70;;;;;;4949322;29;20070;-38
2022/02/22 03:32:00;;;;;;;13.75;9.90;;;28.20;60.70;;;;;;4966835;29;20027;-41
2022/02/22 03:34:26;;;;;;;15.88;9.23;;;28.20;60.70;;;;;;4966840;29;20054;-39
2022/02/22 03:36:53;;;;;;;12.55;8.88;;;28.20;60.70;;;;;;4966622;29;20058;-38
2022/02/22 03:39:20;;;;;;;11.07;8.52;;;28.20;60.90;;;;;;4966868;29;20023;-37
2022/02/22 03:41:46;;;;;;;15.23;8.75;;;28.20;60.80;;;;;;4966645;29;20096;-41
2022/02/22 03:44:13;;;;;;;12.95;8.40;;;28.20;60.80;;;;;;4966151;29;20019;-38
2022/02/22 03:46:40;;;;;;;11.35;8.00;;;28.20;60.80;;;;;;4967098;29;20034;-40
2022/02/22 03:49:06;;;;;;;11.85;8.45;;;28.10;60.80;;;;;;4966500;29;20047;-39
2022/02/22 03:51:34;;;;;;;10.20;8.15;;;28.10;60.90;;;;;;4966806;29;20299;-38
2022/02/22 03:54:00;;;;;;;13.18;8.50;;;28.10;60.70;;;;;;4966440;29;20073;-39
2022/02/22 03:56:27;;;;;;;12.65;8.07;;;28.10;60.70;;;;;;4966522;29;20203;-37
2022/02/22 03:58:53;;;;;;;13.32;8.30;;;28.10;60.30;;;;;;4965826;29;20027;-38
2022/02/22 04:01:20;;;;;;;12.05;7.97;;;28.10;60.40;;;;;;4966553;29;20031;-37
2022/02/22 04:03:47;;;;;;;13.65;8.57;;;28.10;60.40;;;;;;4966253;29;20019;-37
2022/02/22 04:06:13;;;;;;;10.77;8.57;;;28.10;60.50;;;;;;4966361;29;20307;-37
2022/02/22 04:08:40;;;;;;;12.98;8.95;;;28.10;60.40;;;;;;4966273;29;20315;-37
2022/02/22 04:11:07;;;;;;;12.07;8.65;;;28.10;61.00;;;;;;4966586;29;20033;-38
2022/02/22 04:13:33;;;;;;;13.90;8.70;;;28.10;60.30;;;;;;4965657;29;20062;-38
2022/02/22 04:16:01;;;;;;;13.90;8.82;;;28.10;60.20;;;;;;4949246;29;20203;-40
2022/02/22 04:18:28;;;;;;;28.85;25.85;;;28.10;60.30;;;;;;4965547;28;20062;-37
2022/02/22 04:20:55;;;;;;;64.95;58.65;;;28.10;60.30;;;;;;4966144;29;20015;-41
2022/02/22 04:23:21;;;;;;;44.08;39.63;;;28.00;60.30;;;;;;4966009;29;20050;-41
2022/02/22 04:25:48;;;;;;;22.63;20.20;;;28.10;60.40;;;;;;4965940;29;20086;-37
2022/02/22 04:28:15;;;;;;;19.13;15.70;;;28.10;60.30;;;;;;4965402;29;20314;-39
2022/02/22 04:30:41;;;;;;;15.50;13.80;;;28.10;60.30;;;;;;4948815;29;20047;-41
2022/02/22 04:33:08;;;;;;;17.10;13.70;;;28.00;60.00;;;;;;4965827;29;20034;-41
2022/02/22 04:35:34;;;;;;;14.57;12.23;;;28.10;59.90;;;;;;4965918;29;20082;-40
2022/02/22 04:38:01;;;;;;;13.15;11.45;;;28.00;59.80;;;;;;4965514;29;20070;-38
2022/02/22 04:40:29;;;;;;;13.98;10.93;;;28.10;60.00;;;;;;4965375;29;20019;-40
2022/02/22 04:42:56;;;;;;;14.35;10.65;;;28.10;59.80;;;;;;4965948;29;20027;-40
2022/02/22 04:45:23;;;;;;;16.52;10.43;;;28.00;59.80;;;;;;4965215;29;20024;-39
2022/02/22 04:47:50;;;;;;;11.60;9.40;;;28.00;59.80;;;;;;4966038;29;20034;-45
2022/02/22 04:50:21;;;;;;;13.35;9.48;;;28.00;59.80;;;;;;4965650;29;20051;-43
2022/02/22 04:52:48;;;;;;;12.45;9.30;;;28.00;59.70;;;;;;4966327;29;20019;-39
2022/02/22 04:55:15;;;;;;;10.88;9.45;;;28.00;59.70;;;;;;4966022;29;20047;-39
2022/02/22 04:57:42;;;;;;;12.77;9.60;;;28.00;59.60;;;;;;4965775;29;20051;-43
2022/02/22 05:00:14;;;;;;;13.15;9.30;;;28.00;59.70;;;;;;4965922;29;20027;-46
2022/02/22 05:02:42;;;;;;;12.65;9.55;;;28.00;59.70;;;;;;4965863;29;20035;-41
2022/02/22 05:05:09;;;;;;;12.18;9.00;;;28.00;59.70;;;;;;4965680;29;20027;-39
2022/02/22 05:07:36;;;;;;;11.60;9.15;;;28.00;59.70;;;;;;4965515;29;20323;-37
2022/02/22 05:10:03;;;;;;;11.35;8.73;;;28.00;59.50;;;;;;4965811;29;20026;-38
2022/02/22 05:12:30;;;;;;;14.13;9.38;;;28.00;59.70;;;;;;4965912;29;20026;-39
2022/02/22 05:14:56;;;;;;;13.73;9.30;;;28.00;59.70;;;;;;4965760;29;20039;-43
2022/02/22 05:17:23;;;;;;;15.15;9.52;;;28.00;59.70;;;;;;4965622;29;20046;-39
2022/02/22 05:19:49;;;;;;;13.93;9.02;;;28.00;59.70;;;;;;4965377;28;20039;-39
2022/02/22 05:22:16;;;;;;;12.77;9.15;;;28.00;59.70;;;;;;4965412;29;20043;-42
2022/02/22 05:24:43;;;;;;;11.95;8.80;;;28.00;59.80;;;;;;4965652;29;20295;-46
2022/02/22 05:27:09;;;;;;;12.18;8.77;;;27.90;59.60;;;;;;4965272;29;20031;-42
2022/02/22 05:29:36;;;;;;;12.25;8.85;;;27.90;59.70;;;;;;4967288;28;20307;-45
2022/02/22 05:32:04;;;;;;;12.80;8.77;;;27.90;59.60;;;;;;4969274;29;20062;-41
2022/02/22 05:34:33;;;;;;;12.30;9.20;;;27.90;59.70;;;;;;4968919;29;20019;-44
2022/02/22 05:37:00;;;;;;;11.02;8.75;;;27.90;59.60;;;;;;4968919;29;20036;-38
2022/02/22 05:39:26;;;;;;;10.95;8.57;;;27.90;59.70;;;;;;4969124;29;20059;-43
2022/02/22 05:41:53;;;;;;;15.20;9.60;;;27.90;59.60;;;;;;4968862;29;20030;-41
2022/02/22 05:44:19;;;;;;;12.82;8.52;;;27.90;59.70;;;;;;4969240;29;20035;-40
2022/02/22 05:46:46;;;;;;;12.75;9.20;;;27.90;59.60;;;;;;4968787;29;20035;-41
2022/02/22 05:49:12;;;;;;;11.50;8.90;;;27.90;59.60;;;;;;4968750;29;20044;-45
2022/02/22 05:51:39;;;;;;;14.27;9.20;;;27.90;59.60;;;;;;4969325;29;20330;-47
2022/02/22 05:54:05;;;;;;;16.10;9.43;;;27.90;59.60;;;;;;4968954;29;20023;-47
2022/02/22 05:56:32;;;;;;;13.95;9.05;;;27.90;59.60;;;;;;4968423;29;20151;-47
2022/02/22 05:59:02;;;;;;;11.15;8.18;;;27.80;59.50;;;;;;4968650;29;20378;-48
2022/02/22 06:01:29;;;;;;;10.13;8.95;;;27.80;59.50;;;;;;4968859;29;20031;-36
2022/02/22 06:03:55;;;;;;;13.07;8.80;;;27.80;59.60;;;;;;4968399;29;20342;-36
2022/02/22 06:06:22;;;;;;;11.18;8.63;;;27.90;59.60;;;;;;4968919;29;20023;-37
2022/02/22 06:08:48;;;;;;;10.43;9.38;;;27.80;59.40;;;;;;4968645;29;20311;-40
2022/02/22 06:11:16;;;;;;;12.00;9.38;;;27.80;59.50;;;;;;4968987;29;20037;-41
2022/02/22 06:13:43;;;;;;;10.88;9.05;;;27.80;59.50;;;;;;4968482;29;20027;-38
2022/02/22 06:16:09;;;;;;;10.77;9.07;;;27.80;59.60;;;;;;4968627;29;20043;-38
2022/02/22 06:18:36;;;;;;;11.38;8.70;;;27.80;59.60;;;;;;4968643;29;20303;-41
2022/02/22 06:21:03;;;;;;;11.57;9.35;;;27.80;59.70;;;;;;4968606;29;20074;-38
2022/02/22 06:23:30;;;;;;;13.13;9.90;;;27.80;59.70;;;;;;4968308;29;20019;-37
2022/02/22 06:25:56;;;;;;;12.95;9.27;;;27.80;59.90;;;;;;4968535;29;20023;-38
2022/02/22 06:28:23;;;;;;;16.30;9.43;;;27.80;60.00;;;;;;4968009;29;20043;-41
2022/02/22 06:30:49;;;;;;;12.55;9.20;;;27.80;59.80;;;;;;4968680;29;20031;-38
2022/02/22 06:33:16;;;;;;;12.25;9.43;;;27.80;60.10;;;;;;4968338;29;20134;-38
2022/02/22 06:35:42;;;;;;;10.65;9.35;;;27.80;60.10;;;;;;4968318;29;20019;-38
2022/02/22 06:38:09;;;;;;;12.90;8.73;;;27.80;59.90;;;;;;4968037;29;20242;-45
2022/02/22 06:40:36;;;;;;;11.68;9.38;;;27.80;60.20;;;;;;4967400;28;20143;-40
2022/02/22 06:43:03;;;;;;;13.00;9.52;;;27.80;60.70;;;;;;4967702;29;20030;-40
2022/02/22 06:45:30;;;;;;;14.00;9.38;;;27.80;60.20;;;;;;4968024;29;20043;-42
2022/02/22 06:47:56;;;;;;;12.23;9.13;;;27.80;60.20;;;;;;4967887;29;20238;-41
2022/02/22 06:50:24;;;;;;;12.23;9.63;;;27.80;60.20;;;;;;4968104;29;20027;-38
2022/02/22 06:52:52;;;;;;;11.40;9.70;;;27.70;60.20;;;;;;4967970;29;20180;-41
2022/02/22 06:55:19;;;;;;;11.48;9.50;;;27.70;60.20;;;;;;4967636;29;20219;-39
2022/02/22 06:58:08;;;;;;;11.77;9.23;;;27.70;60.20;;;;;;4967492;29;20055;-46
2022/02/22 07:00:36;;;;;;;11.52;9.45;;;27.70;60.20;;;;;;4967745;29;20090;-38
2022/02/22 07:03:04;;;;;;;13.15;9.98;;;27.70;60.20;;;;;;4967620;29;20039;-41
2022/02/22 07:05:31;;;;;;;12.55;9.38;;;27.70;60.40;;;;;;4967754;29;20111;-43
2022/02/22 07:07:58;;;;;;;14.55;9.52;;;27.70;60.40;;;;;;4967421;29;20086;-45
2022/02/22 07:10:27;;;;;;;13.90;9.20;;;27.70;60.30;;;;;;4967660;29;20046;-40
2022/02/22 07:12:54;;;;;;;10.63;9.52;;;27.80;60.70;;;;;;4967708;29;20086;-43
2022/02/22 07:15:21;;;;;;;11.25;9.85;;;27.70;60.40;;;;;;4967445;29;20074;-38
2022/02/22 07:17:49;;;;;;;11.50;9.68;;;27.70;60.70;;;;;;4967264;29;20130;-40
2022/02/22 07:20:17;;;;;;;14.40;9.60;;;27.70;60.70;;;;;;4967432;29;20086;-38
2022/02/22 07:22:45;;;;;;;13.93;9.95;;;27.70;60.70;;;;;;4967361;29;20031;-36
2022/02/22 07:25:13;;;;;;;11.15;9.73;;;27.70;60.70;;;;;;4967199;29;20119;-39
2022/02/22 07:27:41;;;;;;;11.60;9.23;;;27.70;60.80;;;;;;4967182;29;20058;-38
2022/02/22 07:30:09;;;;;;;13.20;9.55;;;27.70;60.80;;;;;;4967225;29;20061;-44
2022/02/22 07:32:35;;;;;;;13.90;9.55;;;27.70;61.10;;;;;;4967041;29;20078;-38
2022/02/22 07:35:02;;;;;;;10.55;9.48;;;27.70;61.10;;;;;;4967178;29;20074;-42
2022/02/22 07:37:29;;;;;;;10.85;9.18;;;27.70;61.30;;;;;;4967042;29;20030;-41
2022/02/22 07:39:56;;;;;;;13.40;9.45;;;27.70;61.10;;;;;;4966583;29;20330;-37
2022/02/22 07:42:22;;;;;;;11.45;9.20;;;27.70;61.10;;;;;;4967037;29;20015;-37
2022/02/22 07:44:49;;;;;;;13.10;10.07;;;27.60;61.00;;;;;;4966790;28;20082;-38
2022/02/22 07:47:16;;;;;;;14.10;9.02;;;27.60;60.90;;;;;;4966646;29;20037;-39
2022/02/22 07:49:45;;;;;;;12.60;9.52;;;27.60;60.80;;;;;;4966818;28;20031;-41
2022/02/22 07:52:11;;;;;;;11.43;9.50;;;27.60;61.20;;;;;;4965714;28;20070;-38
2022/02/22 07:54:38;;;;;;;13.05;9.85;;;27.60;61.40;;;;;;4966487;29;20026;-43
2022/02/22 07:57:05;;;;;;;13.50;9.77;;;27.60;61.20;;;;;;4966568;29;20065;-43
2022/02/22 07:59:31;;;;;;;11.75;9.43;;;27.60;60.90;;;;;;4966881;29;20023;-39
2022/02/22 08:01:58;;;;;;;12.50;10.10;;;27.60;60.90;;;;;;4966248;29;20019;-41
2022/02/22 08:04:26;;;;;;;11.40;9.48;;;27.60;61.00;;;;;;4966604;29;20135;-43
2022/02/22 08:06:55;;;;;;;10.98;9.73;;;27.60;61.30;;;;;;4966570;29;20033;-39
2022/02/22 08:09:22;;;;;;;15.63;10.15;;;27.60;61.30;;;;;;4966576;29;20030;-41
2022/02/22 08:11:49;;;;;;;11.60;9.50;;;27.60;61.30;;;;;;4966474;29;20035;-40
2022/02/22 08:14:16;;;;;;;12.40;9.27;;;27.60;61.40;;;;;;4966206;29;20211;-38
2022/02/22 08:16:43;;;;;;;12.80;9.45;;;27.60;61.50;;;;;;4966511;29;20043;-40
2022/02/22 08:19:10;;;;;;;17.13;10.32;;;27.60;61.70;;;;;;4966433;29;20019;-38
2022/02/22 08:21:36;;;;;;;18.60;10.20;;;27.60;61.60;;;;;;4966787;29;20027;-42
2022/02/22 08:24:03;;;;;;;17.20;9.35;;;27.50;61.40;;;;;;4965932;29;20030;-38
2022/02/22 08:26:30;;;;;;;18.08;9.50;;;27.50;61.40;;;;;;4966086;29;20053;-38
2022/02/22 08:28:56;;;;;;;17.50;9.98;;;27.50;61.50;;;;;;4966128;29;20062;-49
2022/02/22 08:31:25;;;;;;;14.75;9.98;;;27.50;61.80;;;;;;4966434;29;20027;-38
2022/02/22 08:33:58;;;;;;;13.25;9.70;;;27.50;61.80;;;;;;4965952;29;20327;-41
2022/02/22 08:36:29;;;;;;;15.57;9.75;;;27.50;61.80;;;;;;4966192;29;20055;-40
2022/02/22 08:38:56;;;;;;;12.48;10.18;;;27.50;61.70;;;;;;4965884;29;20023;-40
2022/02/22 08:41:23;;;;;;;11.27;9.23;;;27.40;61.90;;;;;;4966191;29;20318;-41
2022/02/22 08:43:51;;;;;;;12.60;9.63;;;27.40;61.60;;;;;;4965756;29;20015;-44
2022/02/22 08:46:18;;;;;;;11.75;9.57;;;27.40;61.40;;;;;;4966017;29;20287;-44
2022/02/22 08:48:45;;;;;;;14.30;10.00;;;27.40;61.50;;;;;;4965697;29;20235;-43
2022/02/22 08:51:13;;;;;;;12.30;9.77;;;27.40;61.50;;;;;;4966410;29;20055;-40
2022/02/22 08:53:40;;;;;;;11.70;9.75;;;27.40;61.50;;;;;;4965468;29;20062;-37
2022/02/22 08:56:07;;;;;;;12.00;10.05;;;27.40;61.70;;;;;;4965986;29;20050;-39
2022/02/22 08:58:33;;;;;;;10.88;9.68;;;27.40;61.70;;;;;;4965794;29;20103;-40
2022/02/22 09:01:00;;;;;;;10.68;9.60;;;27.40;61.60;;;;;;4965833;29;20039;-38
2022/02/22 09:03:27;;;;;;;13.75;9.57;;;27.40;61.60;;;;;;4965953;28;20027;-37
2022/02/22 09:06:01;;;;;;;13.90;9.45;;;27.40;61.50;;;;;;4969825;29;20066;-37
2022/02/22 09:08:28;;;;;;;14.40;9.13;;;27.40;61.70;;;;;;4969562;29;20114;-36
2022/02/22 09:10:55;;;;;;;12.77;9.45;;;27.40;61.60;;;;;;4969986;29;20320;-36
2022/02/22 09:13:22;;;;;;;13.85;9.75;;;27.40;61.50;;;;;;4969562;29;20019;-37
2022/02/22 09:15:50;;;;;;;12.73;9.52;;;27.40;61.70;;;;;;4969599;29;20340;-37
2022/02/22 09:18:17;;;;;;;12.35;9.38;;;27.40;61.50;;;;;;4969416;29;20094;-37
2022/02/22 09:20:45;;;;;;;12.13;9.60;;;27.40;61.50;;;;;;4969477;29;20054;-36
2022/02/22 09:23:12;;;;;;;14.30;9.95;;;27.40;61.50;;;;;;4969218;29;20031;-39
2022/02/22 09:25:38;;;;;;;11.27;8.85;;;27.30;61.40;;;;;;4969525;29;20043;-39
2022/02/22 09:28:10;;;;;;;11.13;9.13;;;27.40;61.50;;;;;;4969473;29;20051;-38
2022/02/22 09:30:37;;;;;;;14.57;9.98;;;27.30;61.50;;;;;;4969733;29;20102;-42
2022/02/22 09:33:06;;;;;;;14.57;9.48;;;27.30;61.50;;;;;;4969310;29;20031;-43
2022/02/22 09:35:33;;;;;;;16.90;9.27;;;27.30;61.60;;;;;;4969134;29;20027;-40
2022/02/22 09:38:00;;;;;;;14.45;8.52;;;27.30;61.60;;;;;;4969010;29;20023;-38
2022/02/22 09:40:28;;;;;;;12.82;9.07;;;27.30;61.70;;;;;;4969531;29;20046;-45
2022/02/22 09:42:54;;;;;;;26.48;9.85;;;27.30;61.70;;;;;;4968979;29;20370;-43
2022/02/22 09:45:22;;;;;;;14.82;9.45;;;27.30;61.90;;;;;;4968273;29;20067;-38
2022/02/22 09:47:49;;;;;;;18.15;9.15;;;27.30;62.00;;;;;;4960332;29;20377;-38
2022/02/22 09:50:17;;;;;;;17.05;9.57;;;27.30;62.00;;;;;;4968863;29;20043;-46
2022/02/22 09:52:44;;;;;;;19.90;9.15;;;27.30;61.90;;;;;;4968827;29;20367;-44
2022/02/22 09:55:11;;;;;;;15.20;8.80;;;27.30;61.90;;;;;;4968783;29;20043;-39
2022/02/22 09:57:38;;;;;;;21.48;9.57;;;27.30;61.90;;;;;;4968378;29;20145;-39
2022/02/22 10:00:23;;;;;;;12.75;9.50;;;27.30;62.00;;;;;;4968654;29;20042;-39
2022/02/22 10:02:50;;;;;;;20.85;9.55;;;27.30;62.10;;;;;;4968601;29;20037;-42
2022/02/22 10:05:22;;;;;;;12.63;9.00;;;27.30;62.20;;;;;;4968378;29;20094;-36
2022/02/22 10:08:00;;;;;;;15.80;9.45;;;27.30;62.40;;;;;;4968620;29;20053;-36
2022/02/22 10:10:37;;;;;;;14.18;9.20;;;27.30;62.70;;;;;;4968649;29;20287;-37
2022/02/22 10:13:09;;;;;;;14.80;9.52;;;27.30;62.60;;;;;;4968633;29;20031;-43
2022/02/22 10:15:44;;;;;;;12.85;9.32;;;27.30;62.70;;;;;;4967483;28;20027;-43
2022/02/22 10:18:12;;;;;;;17.83;9.35;;;27.30;62.50;;;;;;4968194;29;20064;-39
2022/02/22 10:20:39;;;;;;;21.08;10.15;;;27.30;62.50;;;;;;4968777;29;20027;-39
2022/02/22 10:23:07;;;;;;;21.75;10.35;;;27.30;62.70;;;;;;4968085;29;20054;-40
2022/02/22 10:25:35;;;;;;;30.95;10.73;;;27.30;62.70;;;;;;4968331;29;20035;-39
2022/02/22 10:28:04;;;;;;;26.60;10.68;;;27.30;63.00;;;;;;4968246;29;20192;-43
2022/02/22 10:30:43;;;;;;;31.48;10.90;;;27.30;63.40;;;;;;4967968;29;20308;-40
2022/02/22 10:33:12;;;;;;;27.52;10.80;;;27.30;63.10;;;;;;4968045;29;20090;-40
2022/02/22 10:35:39;;;;;;;27.05;11.38;;;27.30;63.20;;;;;;4968079;29;20311;-36
2022/02/22 10:38:16;;;;;;;29.55;10.82;;;27.30;63.40;;;;;;4968119;29;20015;-37
2022/02/22 10:40:52;;;;;;;23.58;10.35;;;27.30;63.70;;;;;;4968232;29;20039;-38
2022/02/22 10:43:25;;;;;;;22.50;10.77;;;27.30;63.60;;;;;;4967824;29;20184;-37
2022/02/22 10:45:54;;;;;;;35.38;11.70;;;27.20;63.70;;;;;;4968081;29;20039;-39
2022/02/22 10:48:30;;;;;;;21.98;10.63;;;27.20;63.60;;;;;;4968297;29;20027;-42
2022/02/22 10:50:58;;;;;;;26.40;10.75;;;27.20;63.90;;;;;;4967937;29;20034;-38
2022/02/22 10:53:36;;;;;;;27.50;11.43;;;27.20;64.10;;;;;;4950776;29;20042;-38
2022/02/22 10:56:06;;;;;;;32.70;12.02;;;27.20;64.40;;;;;;4967803;29;20035;-37
2022/02/22 10:58:33;;;;;;;41.85;16.10;;;27.20;64.70;;;;;;4967516;29;20051;-43
2022/02/22 11:01:01;;;;;;;35.70;14.20;;;27.20;65.00;;;;;;4967811;29;20211;-41
2022/02/22 11:03:27;;;;;;;31.90;12.90;;;27.20;65.30;;;;;;4967618;29;20019;-39
2022/02/22 11:05:54;;;;;;;30.90;13.60;;;27.20;65.30;;;;;;4967776;29;20299;-40
2022/02/22 11:08:30;;;;;;;60.55;27.27;;;27.20;65.10;;;;;;4967366;29;20035;-40
2022/02/22 11:11:03;;;;;;;66.22;43.60;;;27.10;65.40;;;;;;4968044;29;20271;-41
2022/02/22 11:13:31;;;;;;;63.30;36.72;;;27.10;65.40;;;;;;4967134;29;20043;-39
2022/02/22 11:16:17;;;;;;;63.55;34.42;;;27.10;65.60;;;;;;4967622;29;20027;-39
2022/02/22 11:18:54;;;;;;;56.53;28.08;;;27.10;66.00;;;;;;4967098;29;20039;-38
2022/02/22 11:21:30;;;;;;;59.17;28.20;;;27.10;65.70;;;;;;4967718;29;20291;-39
2022/02/22 11:24:05;;;;;;;55.00;23.80;;;27.10;65.80;;;;;;4966935;29;20027;-45
2022/02/22 11:26:49;;;;;;;56.10;23.17;;;27.00;65.80;;;;;;4967478;28;20311;-44
2022/02/22 11:29:16;;;;;;;53.17;21.23;;;27.00;66.00;;;;;;4967063;29;20038;-41
2022/02/22 11:32:00;;;;;;;55.38;20.67;;;27.00;66.10;;;;;;4967527;29;20326;-39
2022/02/22 11:34:32;;;;;;;61.42;21.23;;;27.00;66.30;;;;;;4967148;29;20038;-44
2022/02/22 11:37:02;;;;;;;;;;;27.00;66.50;;;;;;4967462;29;20218;-44
2022/02/22 11:39:30;;;;;;;61.58;19.70;;;27.00;66.80;;;;;;4966693;29;20290;-48
2022/02/22 11:41:56;;;;;;;52.90;18.38;;;27.00;66.80;;;;;;4967120;29;20058;-42
2022/02/22 11:44:24;;;;;;;84.20;19.45;;;27.00;67.30;;;;;;4966548;28;20026;-39
2022/02/22 11:46:54;;;;;;;59.58;18.30;;;27.00;67.60;;;;;;4966656;29;20114;-41
2022/02/22 11:49:26;;;;;;;69.07;20.15;;;26.90;67.40;;;;;;4966439;29;20307;-40
2022/02/22 11:51:56;;;;;;;71.57;19.83;;;26.90;67.20;;;;;;4966553;29;20083;-40
2022/02/22 11:54:25;;;;;;;71.50;20.55;;;27.00;67.20;;;;;;4966305;29;20019;-39
2022/02/22 11:57:07;;;;;;;95.53;20.30;;;26.90;67.10;;;;;;4966324;29;20047;-40
2022/02/22 11:59:54;;;;;;;94.65;20.80;;;27.00;67.40;;;;;;4966431;29;20027;-42
2022/02/22 12:02:42;;;;;;;98.80;22.20;;;26.90;67.10;;;;;;4966341;29;20034;-37
2022/02/22 12:05:40;;;;;;;92.65;20.40;;;26.90;67.40;;;;;;4966211;29;20062;-37
2022/02/22 12:08:14;;;;;;;54.28;15.48;;;26.90;67.60;;;;;;4966115;29;20041;-37
2022/02/22 12:11:06;;;;;;;42.00;13.95;;;26.90;67.90;;;;;;4966489;29;20031;-46
2022/02/22 12:13:43;;;;;;;44.73;14.90;;;26.90;68.70;;;;;;4966132;29;20086;-43
2022/02/22 12:16:18;;;;;;;38.78;13.15;;;26.90;68.50;;;;;;4966445;29;20365;-40
2022/02/22 12:18:46;;;;;;;44.67;12.77;;;26.90;69.00;;;;;;4966211;29;20032;-49
2022/02/22 12:21:45;;;;;;;33.90;11.75;;;26.90;68.70;;;;;;5122359;27;20380;-47
2022/02/22 12:24:15;;;;;;;26.83;12.25;;;26.90;69.00;;;;;;5122079;28;20275;-41
2022/02/22 12:26:42;;;;;;;27.45;11.25;;;26.90;68.80;;;;;;5121762;28;20087;-47
2022/02/22 12:29:09;;;;;;;25.80;11.35;;;27.00;69.00;;;;;;5121915;28;20015;-45
2022/02/22 12:31:53;;;;;;;27.63;10.40;;;27.00;69.10;;;;;;5121686;28;20059;-40
2022/02/22 12:34:23;;;;;;;18.65;10.05;;;27.00;69.10;;;;;;5115481;28;20359;-38
2022/02/22 12:36:55;;;;;;;22.20;10.23;;;27.00;69.40;;;;;;5104262;28;20024;-39
2022/02/22 12:39:25;;;;;;;18.48;10.32;;;27.00;69.20;;;;;;5101131;28;20027;-37
2022/02/22 12:41:56;;;;;;;19.52;10.10;;;27.00;69.10;;;;;;5101061;28;20032;-38